Terminal Aerodrome Forecast
Issued by NWS Upton, NY

Home | Current Version | Previous Version | Text Only | Print | Product List | Glossary On
Versions: 1 2 3 4 5 6 7 8 9 10 11 12 13 14 15 16 17 18 19 20 21 22 23 24 25 26 27 28 29
000
FTUS41 KOKX 222358
TAFISP
TAF
KISP 222358Z 2300/2324 21016G25KT P6SM SCT009 BKN150
      TEMPO 2300/2304 BKN009
     FM230400 22016G25KT 6SM -SHRA SCT009 BKN050
      TEMPO 2304/2308 5SM -SHRA BKN012
     FM230800 24009KT P6SM VCSH SCT015 BKN050
     FM231100 27008KT P6SM FEW015 BKN100
     FM231300 32010KT P6SM SCT040
     FM231900 28010KT P6SM BKN250=

USA.gov is the U.S. government's official web portal to all federal, state and local government web resources and services.